SMRA weather

Ralleigh Airstrip
Ralleigh, Sipaliwini, Suriname

Public forecast

Using degrees Celsius for public forecast. Weather courtesy of forecast.io.

METAR (pilot weather report)

Closest report is Johan Adolf Pengel International Airport, 75.1 nm (139.2 km) NE. Retrieved 2019/03/26 01:00 UTC (51 minutes ago):

SMJP 260100Z 05002KT CAVOK 24/22 Q1013 NOSIG

TAF (pilot weather forecast)

Forecast is more than 12 hours old.

Closest forecast is Johan Adolf Pengel International Airport, 75.1 nm (139.2 km) NE. Retrieved 2019/03/23 12:27 UTC (3 days ago):

TAF TAF SMJP 231600Z 2312/2412 07010KT 8000 SCT025 TX33/2318Z TN22/2409Z PROB30 TEMPO 2318/2322 4000 SHRA BKN018 BECMG 2323/2401 04005KT 8000 NSC PROB30 TEMPO 2308/2310 00000KT 4000 BR SCT002 FM241200 07010KT 8000 SCT015